Startpagina
METAR-TAF:

METAR-TAF

Vliegvelden :

Loja, Ecuador

breedte: 03-59-45S, lengte: 079-22-19W, hoogte: 1236 m

Actueel weer

Dit bericht is 5 uur en het 36 minuten geleden gemaakt, om 23:00 UTC
Wind 14 kt uit het oosten, variërend tussen het oostnoordoosten en het oostzuidoosten
Temperatuur 27°C
Vochtigheid 37%
Druk 1015 hPa
Zicht 10 km of meer
Weinig wolken op 4000 ft

METAR: SECA 252300Z 09014KT 060V120 9999 FEW040 27/11 Q1015

Tijdstip: 23:36 (04:36 UTC)


TAF: ontbreekt

Waarnemingen en weersverwachtingen van meer dan 4000 vliegvelden (METAR en TAF).

De beschikbare stations zijn de gele en rode punten op de kaart.

Ga met uw muis naar het station om de naam te zien.

Klik dan om waarnemingen en weersverwachtingen te zien.

kaart wijzigen: klik op de groene knoppen met een zwart kruis om in te zoomen, op de groene knop met een streepje om uit te zoomen of op de groene pijlen voor aangrenzende kaarten.


METAR-TAF: